createdAt,value
2023-04-21T00:01:55.407Z,29.15
2023-04-21T00:04:27.994Z,28.42
2023-04-21T00:06:56.848Z,30.20
2023-04-21T00:09:28.377Z,32.63
2023-04-21T00:11:57.512Z,31.58
2023-04-21T00:14:27.091Z,31.40
2023-04-21T00:16:55.897Z,29.77
2023-04-21T00:19:26.638Z,31.80
2023-04-21T00:21:59.020Z,31.50
2023-04-21T00:24:28.270Z,30.50
2023-04-21T00:26:59.929Z,34.60
2023-04-21T00:29:29.952Z,38.50
2023-04-21T00:31:59.833Z,38.60
2023-04-21T00:34:29.992Z,32.53
2023-04-21T00:36:59.226Z,36.55
2023-04-21T00:39:28.468Z,36.05
2023-04-21T00:41:57.402Z,36.60
2023-04-21T00:44:26.163Z,37.38
2023-04-21T00:46:54.721Z,42.47
2023-04-21T00:49:25.671Z,37.67
2023-04-21T00:51:58.256Z,41.88
2023-04-21T00:54:30.974Z,41.40
2023-04-21T00:57:01.104Z,41.95
2023-04-21T00:59:32.933Z,49.92
2023-04-21T01:02:04.829Z,44.17
2023-04-21T01:04:39.801Z,43.15
2023-04-21T01:07:10.496Z,47.15
2023-04-21T01:09:40.009Z,48.33
2023-04-21T01:12:10.579Z,53.78
2023-04-21T01:14:41.605Z,50.78
2023-04-21T01:17:12.624Z,51.90
2023-04-21T01:19:44.371Z,49.60
2023-04-21T01:22:16.879Z,56.08
2023-04-21T01:24:49.482Z,56.17
2023-04-21T01:27:21.406Z,55.80
2023-04-21T01:29:54.265Z,54.88
2023-04-21T01:32:27.324Z,54.92
2023-04-21T01:34:58.302Z,56.00
2023-04-21T01:37:32.643Z,59.22
2023-04-21T01:40:06.959Z,59.50
2023-04-21T01:42:41.140Z,58.33
2023-04-21T01:47:41.904Z,54.47
2023-04-21T01:50:12.388Z,55.55
2023-04-21T01:52:45.226Z,57.53
2023-04-21T01:55:16.322Z,57.83
2023-04-21T01:57:45.030Z,57.92
2023-04-21T02:00:18.224Z,55.15
2023-04-21T02:02:47.947Z,63.08
2023-04-21T02:05:19.119Z,62.53
2023-04-21T02:07:52.413Z,60.05
2023-04-21T02:10:24.140Z,68.43
2023-04-21T02:12:54.387Z,65.60
2023-04-21T02:15:27.093Z,60.97
2023-04-21T02:17:59.175Z,62.63
2023-04-21T02:20:29.871Z,60.80
2023-04-21T02:23:03.954Z,67.80
2023-04-21T02:25:33.353Z,62.97
2023-04-21T02:28:04.649Z,61.42
2023-04-21T02:30:36.397Z,66.88
2023-04-21T02:33:07.732Z,67.60
2023-04-21T02:35:40.385Z,63.38
2023-04-21T02:38:11.331Z,67.03
2023-04-21T02:40:42.736Z,67.03
2023-04-21T02:43:13.303Z,65.93
2023-04-21T02:45:57.186Z,70.70
2023-04-21T02:48:30.534Z,67.15
2023-04-21T02:51:01.403Z,67.05
2023-04-21T02:53:35.506Z,69.07
2023-04-21T03:01:38.545Z,66.85
2023-04-21T03:04:07.809Z,68.20
2023-04-21T03:06:38.886Z,66.45
2023-04-21T03:09:09.641Z,70.15
2023-04-21T03:11:40.103Z,73.47
2023-04-21T03:14:10.186Z,67.82
2023-04-21T03:16:38.981Z,67.15
2023-04-21T03:19:07.640Z,71.47
2023-04-21T03:21:41.196Z,66.50
2023-04-21T03:24:15.411Z,65.65
2023-04-21T03:26:46.587Z,60.20
2023-04-21T03:29:18.256Z,62.30
2023-04-21T03:31:48.058Z,64.35
2023-04-21T03:34:20.108Z,63.08
2023-04-21T03:36:49.645Z,63.67
2023-04-21T03:39:21.078Z,60.78
2023-04-21T03:41:51.605Z,59.58
2023-04-21T03:44:22.550Z,60.28
2023-04-21T03:46:55.329Z,59.63
2023-04-21T03:49:26.270Z,58.05
2023-04-21T03:52:03.517Z,64.10
2023-04-21T03:54:37.621Z,58.05
2023-04-21T03:57:07.113Z,56.80
2023-04-21T03:59:36.588Z,60.95
2023-04-21T04:02:06.640Z,58.03
2023-04-21T04:04:39.273Z,55.20
2023-04-21T04:07:10.765Z,58.60
2023-04-21T04:09:43.727Z,62.55
2023-04-21T04:12:12.374Z,61.25
2023-04-21T04:14:41.454Z,58.95
2023-04-21T04:17:13.109Z,68.97
2023-04-21T04:19:43.022Z,61.50
2023-04-21T04:22:13.423Z,59.90
2023-04-21T04:24:45.150Z,60.92
2023-04-21T04:27:17.871Z,62.83
2023-04-21T04:29:49.717Z,61.25
2023-04-21T04:32:39.489Z,61.30
2023-04-21T04:35:13.418Z,61.70
2023-04-21T04:37:48.710Z,57.65
2023-04-21T04:40:21.534Z,68.18
2023-04-21T04:42:53.170Z,57.88
2023-04-21T04:45:23.907Z,59.47
2023-04-21T04:47:53.186Z,65.97
2023-04-21T04:50:24.755Z,56.97
2023-04-21T04:52:54.786Z,62.35
2023-04-21T04:55:27.858Z,60.00
2023-04-21T04:57:58.698Z,60.97
2023-04-21T05:00:42.915Z,59.67
2023-04-21T05:03:12.345Z,61.72
2023-04-21T05:05:42.747Z,59.30
2023-04-21T05:08:11.777Z,63.33
2023-04-21T05:10:46.908Z,62.50
2023-04-21T05:15:48.428Z,62.55
2023-04-21T05:18:17.811Z,57.65
2023-04-21T05:20:47.545Z,62.50
2023-04-21T05:23:16.201Z,55.10
2023-04-21T05:25:49.454Z,60.25
2023-04-21T05:28:26.272Z,59.72
2023-04-21T05:30:55.649Z,61.75
2023-04-21T05:33:27.177Z,61.03
2023-04-21T05:35:58.213Z,66.15
2023-04-21T05:38:28.008Z,68.93
2023-04-21T05:41:02.798Z,69.22
2023-04-21T05:43:35.796Z,69.35
2023-04-21T05:46:11.671Z,64.32
2023-04-21T05:48:42.240Z,67.63
2023-04-21T05:51:12.828Z,69.53
2023-04-21T05:53:48.476Z,80.95
2023-04-21T05:56:18.908Z,76.68
2023-04-21T05:58:48.684Z,76.47
2023-04-21T06:01:19.217Z,76.72
2023-04-21T06:03:50.695Z,80.07
2023-04-21T06:06:22.317Z,87.35
2023-04-21T06:08:53.333Z,80.38
2023-04-21T06:11:26.921Z,81.03
2023-04-21T06:14:05.386Z,77.63
2023-04-21T06:19:24.202Z,86.55
2023-04-21T06:22:07.435Z,75.43
2023-04-21T06:24:37.219Z,76.93
2023-04-21T06:27:14.391Z,73.03
2023-04-21T06:29:47.982Z,83.20
2023-04-21T06:32:20.335Z,71.72
2023-04-21T06:34:49.766Z,72.63
2023-04-21T06:37:19.486Z,74.18
2023-04-21T06:42:37.597Z,70.95
2023-04-21T06:45:24.692Z,69.95
2023-04-21T06:47:58.184Z,70.10
2023-04-21T06:50:29.858Z,70.45
2023-04-21T06:52:58.792Z,77.05
2023-04-21T06:55:29.215Z,63.85
2023-04-21T06:58:00.480Z,62.42
2023-04-21T07:00:30.846Z,63.70
2023-04-21T07:02:59.763Z,68.85
2023-04-21T07:05:36.079Z,67.35
2023-04-21T07:08:35.003Z,62.20
2023-04-21T07:11:10.528Z,65.38
2023-04-21T07:13:44.640Z,69.50
2023-04-21T07:16:24.747Z,70.90
2023-04-21T07:18:56.956Z,62.15
2023-04-21T07:21:41.572Z,59.60
2023-04-21T07:30:31.657Z,60.63
2023-04-21T07:33:02.743Z,57.08
2023-04-21T07:35:31.755Z,55.90
2023-04-21T07:38:01.380Z,54.85
2023-04-21T07:40:35.491Z,56.08
2023-04-21T07:43:05.731Z,52.25
2023-04-21T07:45:37.224Z,60.42
2023-04-21T07:48:11.118Z,57.28
2023-04-21T07:50:43.324Z,54.92
2023-04-21T07:53:14.472Z,51.58
2023-04-21T07:55:50.760Z,50.83
2023-04-21T07:58:24.063Z,48.28
2023-04-21T08:00:59.211Z,45.90
2023-04-21T08:03:52.775Z,46.03
2023-04-21T08:06:25.132Z,41.70
2023-04-21T08:08:56.820Z,43.67
2023-04-21T08:11:26.251Z,49.47
2023-04-21T08:13:55.783Z,42.08
2023-04-21T08:16:26.925Z,38.15
2023-04-21T08:18:57.533Z,42.47
2023-04-21T08:21:28.903Z,42.22
2023-04-21T08:24:00.558Z,39.08
2023-04-21T08:26:30.847Z,40.63
2023-04-21T08:29:00.709Z,39.83
2023-04-21T08:31:35.691Z,40.92
2023-04-21T08:34:06.664Z,38.95
2023-04-21T08:36:38.813Z,37.65
2023-04-21T08:39:07.540Z,38.90
2023-04-21T08:41:36.497Z,38.03
2023-04-21T08:44:06.399Z,39.60
2023-04-21T08:46:41.895Z,42.58
2023-04-21T08:49:13.615Z,40.20
2023-04-21T08:51:45.982Z,40.13
2023-04-21T08:54:30.224Z,45.08
2023-04-21T08:57:11.724Z,40.70
2023-04-21T08:59:45.730Z,39.45
2023-04-21T09:02:19.489Z,38.00
2023-04-21T09:04:52.401Z,45.22
2023-04-21T09:07:37.230Z,40.58
2023-04-21T09:10:11.219Z,41.22
2023-04-21T09:12:56.471Z,41.88
2023-04-21T09:15:29.943Z,37.92
2023-04-21T09:18:04.586Z,38.67
2023-04-21T09:20:34.285Z,42.03
2023-04-21T09:23:12.300Z,39.03
2023-04-21T09:25:45.188Z,35.83
2023-04-21T09:28:16.576Z,36.08
2023-04-21T09:30:47.035Z,39.67
2023-04-21T09:33:29.421Z,35.50
2023-04-21T09:36:04.719Z,35.60
2023-04-21T09:38:35.989Z,36.95
2023-04-21T09:41:05.854Z,39.78
2023-04-21T09:43:38.663Z,40.58
2023-04-21T09:46:12.297Z,36.72
2023-04-21T09:48:46.201Z,36.97
2023-04-21T09:53:55.724Z,37.43
2023-04-21T09:56:27.778Z,37.92
2023-04-21T09:59:03.319Z,32.80
2023-04-21T10:01:36.619Z,35.30
2023-04-21T10:04:07.820Z,30.25
2023-04-21T10:06:42.154Z,33.60
2023-04-21T10:09:19.121Z,32.30
2023-04-21T10:11:48.460Z,33.78
2023-04-21T10:14:23.759Z,33.13
2023-04-21T10:17:25.247Z,32.95
2023-04-21T10:20:00.300Z,35.95
2023-04-21T10:22:30.531Z,38.60
2023-04-21T10:25:03.784Z,32.45
2023-04-21T10:27:37.825Z,32.08
2023-04-21T10:30:26.943Z,33.90
2023-04-21T10:33:06.096Z,33.60
2023-04-21T10:36:07.597Z,31.48
2023-04-21T10:38:43.641Z,37.20
2023-04-21T10:41:29.379Z,34.42
2023-04-21T10:44:02.574Z,36.45
2023-04-21T10:46:42.864Z,32.90
2023-04-21T10:49:16.894Z,35.22
2023-04-21T10:52:12.963Z,34.15
2023-04-21T10:54:46.262Z,33.10
2023-04-21T10:57:18.591Z,32.92
2023-04-21T10:59:50.249Z,31.00
2023-04-21T11:02:24.531Z,35.20
2023-04-21T11:04:57.000Z,37.72
2023-04-21T11:07:31.372Z,33.85
2023-04-21T11:10:03.046Z,32.60
2023-04-21T11:12:43.920Z,31.83
2023-04-21T11:15:16.392Z,34.53
2023-04-21T11:17:48.880Z,38.47
2023-04-21T11:20:18.063Z,34.35
2023-04-21T11:22:53.585Z,32.58
2023-04-21T11:25:23.916Z,35.17
2023-04-21T11:28:00.270Z,35.65
2023-04-21T11:30:40.495Z,34.78
2023-04-21T11:33:09.680Z,30.60
2023-04-21T11:35:47.823Z,34.85
2023-04-21T11:38:19.191Z,33.28
2023-04-21T11:40:50.098Z,30.73
2023-04-21T11:43:24.270Z,34.75
2023-04-21T11:45:54.565Z,34.00
2023-04-21T11:48:36.614Z,33.30
2023-04-21T11:51:06.054Z,34.03
2023-04-21T11:53:41.406Z,34.08
2023-04-21T11:56:13.290Z,32.28
2023-04-21T11:58:49.144Z,33.67
2023-04-21T12:01:27.838Z,30.50
2023-04-21T12:03:58.055Z,31.95
2023-04-21T12:06:29.301Z,32.10
2023-04-21T12:09:05.153Z,35.78
2023-04-21T12:11:36.325Z,35.17
2023-04-21T12:14:06.981Z,32.13
2023-04-21T12:16:40.433Z,31.60
2023-04-21T12:19:09.441Z,32.08
2023-04-21T12:21:40.452Z,31.85
2023-04-21T12:24:13.968Z,33.95
2023-04-21T12:26:53.395Z,31.60
2023-04-21T12:29:24.712Z,37.60
2023-04-21T12:31:55.366Z,33.38
2023-04-21T12:34:24.839Z,33.55
2023-04-21T12:36:58.884Z,30.30
2023-04-21T12:39:29.990Z,29.63
2023-04-21T12:42:02.589Z,30.25
2023-04-21T12:44:31.993Z,30.75
2023-04-21T12:47:08.308Z,34.75
2023-04-21T12:49:39.534Z,31.25
2023-04-21T12:52:10.047Z,30.00
2023-04-21T12:54:45.405Z,30.98
2023-04-21T12:57:25.769Z,29.70
2023-04-21T12:59:56.254Z,31.80
2023-04-21T13:02:26.638Z,27.70
2023-04-21T13:04:59.796Z,29.58
2023-04-21T13:07:42.598Z,34.92
2023-04-21T13:10:14.160Z,29.40
2023-04-21T13:12:44.473Z,29.98
2023-04-21T13:15:16.847Z,33.42
2023-04-21T13:17:46.759Z,30.02
2023-04-21T13:20:19.450Z,30.52
2023-04-21T13:22:52.619Z,29.90
2023-04-21T13:25:37.008Z,33.40
2023-04-21T13:28:07.632Z,28.80
2023-04-21T13:30:49.341Z,28.80
2023-04-21T13:33:21.453Z,32.90
2023-04-21T13:35:50.897Z,27.45
2023-04-21T13:38:28.509Z,28.85
2023-04-21T13:41:00.878Z,34.28
2023-04-21T13:43:32.071Z,29.05
2023-04-21T13:46:00.639Z,33.83
2023-04-21T13:48:30.045Z,32.15
2023-04-21T13:51:00.161Z,28.17
2023-04-21T13:53:34.442Z,28.52
2023-04-21T13:56:05.426Z,30.83
2023-04-21T13:58:36.679Z,24.38
2023-04-21T14:01:10.775Z,26.92
2023-04-21T14:03:50.461Z,27.52
2023-04-21T14:06:21.271Z,22.83
2023-04-21T14:08:52.650Z,24.95
2023-04-21T14:11:28.678Z,25.48
2023-04-21T14:14:09.957Z,22.98
2023-04-21T14:16:46.935Z,24.00
2023-04-21T14:19:17.602Z,24.77
2023-04-21T14:21:50.108Z,25.02
2023-04-21T14:24:21.832Z,23.60
2023-04-21T14:26:53.214Z,23.75
2023-04-21T14:29:24.626Z,22.90
2023-04-21T14:31:59.811Z,25.92
2023-04-21T14:34:29.129Z,23.02
2023-04-21T14:37:01.235Z,20.92
2023-04-21T14:39:33.032Z,22.60
2023-04-21T14:42:06.661Z,20.77
2023-04-21T14:44:35.859Z,22.40
2023-04-21T14:47:09.755Z,23.13
2023-04-21T14:49:40.972Z,21.48
2023-04-21T14:52:15.772Z,25.20
2023-04-21T14:57:19.597Z,20.77
2023-04-21T14:59:52.957Z,22.80
2023-04-21T15:02:29.171Z,22.95
2023-04-21T15:04:59.922Z,25.85
2023-04-21T15:07:33.276Z,21.92
2023-04-21T15:10:03.985Z,22.63
2023-04-21T15:12:37.769Z,25.60
2023-04-21T15:15:08.305Z,22.98
2023-04-21T15:17:40.706Z,23.67
2023-04-21T15:20:12.454Z,26.67
2023-04-21T15:22:43.867Z,22.85
2023-04-21T15:25:13.515Z,20.92
2023-04-21T15:27:43.644Z,29.88
2023-04-21T15:30:14.677Z,24.98
2023-04-21T15:33:01.174Z,24.05
2023-04-21T15:35:34.900Z,25.05
2023-04-21T15:38:06.256Z,32.60
2023-04-21T15:40:59.615Z,25.50
2023-04-21T15:43:30.950Z,31.75
2023-04-21T15:46:01.338Z,48.60
2023-04-21T15:48:34.729Z,38.83
2023-04-21T15:51:05.060Z,29.88
2023-04-21T15:53:35.823Z,28.10
2023-04-21T15:56:05.713Z,29.67
2023-04-21T15:58:44.773Z,31.38
2023-04-21T16:01:14.945Z,26.15
2023-04-21T16:03:44.218Z,27.60
2023-04-21T16:06:13.760Z,33.47
2023-04-21T16:08:45.206Z,27.40
2023-04-21T16:11:14.071Z,33.97
2023-04-21T16:13:46.819Z,31.17
2023-04-21T16:16:17.963Z,34.67
2023-04-21T16:18:48.199Z,27.25
2023-04-21T16:21:17.053Z,40.70
2023-04-21T16:23:47.985Z,31.77
2023-04-21T16:26:20.186Z,34.25
2023-04-21T16:28:56.231Z,30.52
2023-04-21T16:31:26.969Z,31.67
2023-04-21T16:33:59.830Z,29.70
2023-04-21T16:36:32.884Z,36.75
2023-04-21T16:39:06.882Z,29.52
2023-04-21T16:41:36.497Z,31.90
2023-04-21T16:44:11.512Z,34.40
2023-04-21T16:46:45.147Z,34.20
2023-04-21T16:49:20.133Z,28.85
2023-04-21T16:51:52.218Z,29.58
2023-04-21T16:54:22.666Z,34.85
2023-04-21T16:56:52.061Z,33.22
2023-04-21T16:59:24.042Z,35.10
2023-04-21T17:01:55.808Z,27.40
2023-04-21T17:04:30.130Z,33.08
2023-04-21T17:07:01.200Z,32.60
2023-04-21T17:09:31.746Z,30.33
2023-04-21T17:12:01.401Z,29.48
2023-04-21T17:14:33.011Z,29.15
2023-04-21T17:17:02.058Z,33.28
2023-04-21T17:19:31.026Z,34.25
2023-04-21T17:22:03.598Z,31.60
2023-04-21T17:24:51.547Z,30.95
2023-04-21T17:27:23.995Z,34.28
2023-04-21T17:29:54.405Z,34.47
2023-04-21T17:32:25.187Z,33.50
2023-04-21T17:34:55.062Z,30.45
2023-04-21T17:37:31.658Z,34.53
2023-04-21T17:40:03.319Z,35.83
2023-04-21T17:42:33.923Z,34.65
2023-04-21T17:45:07.856Z,33.40
2023-04-21T17:47:39.922Z,31.88
2023-04-21T17:50:14.227Z,32.55
2023-04-21T17:52:43.492Z,31.08
2023-04-21T17:55:16.600Z,29.85
2023-04-21T17:57:49.047Z,36.92
2023-04-21T18:00:24.199Z,36.42
2023-04-21T18:02:53.557Z,34.95
2023-04-21T18:05:23.432Z,38.05
2023-04-21T18:07:54.682Z,33.10
2023-04-21T18:10:43.411Z,37.80
2023-04-21T18:13:12.531Z,34.38
2023-04-21T18:15:44.349Z,35.22
2023-04-21T18:18:14.546Z,36.03
2023-04-21T18:20:46.076Z,35.72
2023-04-21T18:23:17.277Z,39.97
2023-04-21T18:25:46.328Z,39.70
2023-04-21T18:28:18.137Z,37.22
2023-04-21T18:30:50.695Z,35.38
2023-04-21T18:33:33.268Z,39.97
2023-04-21T18:36:32.906Z,46.50
2023-04-21T18:39:18.874Z,38.80
2023-04-21T18:41:57.284Z,61.83
2023-04-21T18:44:34.165Z,52.33
2023-04-21T18:50:26.484Z,40.35
2023-04-21T18:53:22.206Z,32.55
2023-04-21T18:56:27.793Z,35.03
2023-04-21T18:58:59.600Z,31.15
2023-04-21T19:01:38.825Z,25.42
2023-04-21T19:04:15.569Z,20.08
2023-04-21T19:07:04.857Z,18.88
2023-04-21T19:09:56.816Z,12.73
2023-04-21T19:12:46.714Z,14.43
2023-04-21T19:15:45.922Z,14.38
2023-04-21T19:18:31.273Z,15.48
2023-04-21T19:21:19.016Z,17.65
2023-04-21T19:23:59.280Z,18.75
2023-04-21T19:26:51.506Z,17.77
2023-04-21T19:29:38.220Z,19.90
2023-04-21T19:32:10.545Z,21.77
2023-04-21T19:34:50.442Z,21.55
2023-04-21T19:37:39.736Z,21.73
2023-04-21T19:40:19.449Z,25.30
2023-04-21T19:43:18.247Z,18.85
2023-04-21T19:45:58.910Z,26.02
2023-04-21T19:48:58.174Z,25.92
2023-04-21T19:51:49.500Z,25.80
2023-04-21T19:58:28.714Z,28.38
2023-04-21T20:01:17.197Z,20.88
2023-04-21T20:06:52.641Z,26.70
2023-04-21T20:09:29.163Z,32.17
2023-04-21T20:12:02.637Z,31.90
2023-04-21T20:14:54.500Z,29.23
2023-04-21T20:17:44.874Z,28.50
2023-04-21T20:20:27.848Z,28.55
2023-04-21T20:23:12.658Z,28.10
2023-04-21T20:25:59.351Z,30.77
2023-04-21T20:29:01.050Z,35.10
2023-04-21T20:31:51.168Z,32.30
2023-04-21T20:34:45.117Z,27.30
2023-04-21T20:37:25.329Z,19.10
2023-04-21T20:40:10.576Z,15.45
2023-04-21T20:45:36.919Z,10.90
2023-04-21T20:48:08.381Z,11.63
2023-04-21T20:50:37.960Z,12.77
2023-04-21T20:53:14.565Z,8.93
2023-04-21T20:55:44.484Z,8.07
2023-04-21T21:00:59.417Z,11.13
2023-04-21T21:03:32.230Z,8.70
2023-04-21T21:06:04.802Z,11.75
2023-04-21T21:08:36.256Z,9.30
2023-04-21T21:11:06.581Z,9.45
2023-04-21T21:13:47.114Z,9.48
2023-04-21T21:16:18.674Z,25.10
2023-04-21T21:18:52.276Z,13.88
2023-04-21T21:21:24.780Z,8.32
2023-04-21T21:23:55.302Z,23.05
2023-04-21T21:26:25.967Z,26.60
2023-04-21T21:28:56.971Z,11.48
2023-04-21T21:31:27.924Z,10.88
2023-04-21T21:34:00.247Z,8.98
2023-04-21T21:36:30.513Z,8.63
2023-04-21T21:39:06.896Z,8.60
2023-04-21T21:41:38.864Z,11.05
2023-04-21T21:44:10.985Z,11.95
2023-04-21T21:46:45.383Z,14.80
2023-04-21T21:49:18.431Z,18.20
2023-04-21T21:51:48.606Z,16.83
2023-04-21T21:54:18.535Z,17.38
2023-04-21T21:56:48.356Z,15.27
2023-04-21T21:59:18.159Z,17.80
2023-04-21T22:01:57.113Z,14.70
2023-04-21T22:04:27.355Z,16.48
2023-04-21T22:06:57.048Z,17.33
2023-04-21T22:09:27.431Z,13.45
2023-04-21T22:12:02.259Z,20.80
2023-04-21T22:14:31.908Z,15.13
2023-04-21T22:17:07.953Z,16.52
2023-04-21T22:19:37.098Z,17.58
2023-04-21T22:22:08.807Z,14.57
2023-04-21T22:24:38.615Z,17.10
2023-04-21T22:27:09.579Z,17.85
2023-04-21T22:29:43.265Z,15.20
2023-04-21T22:32:16.156Z,16.20
2023-04-21T22:34:46.660Z,16.92
2023-04-21T22:37:18.205Z,16.15
2023-04-21T22:39:48.827Z,19.10
2023-04-21T22:42:20.400Z,14.70
2023-04-21T22:44:49.998Z,17.58
2023-04-21T22:47:34.280Z,19.75
2023-04-21T22:50:07.245Z,15.25
2023-04-21T22:52:38.917Z,16.80
2023-04-21T22:55:10.838Z,16.67
2023-04-21T22:57:40.439Z,17.48
2023-04-21T23:00:16.643Z,19.15
2023-04-21T23:02:48.502Z,18.25
2023-04-21T23:05:19.723Z,19.27
2023-04-21T23:07:53.522Z,16.88
2023-04-21T23:10:26.426Z,19.05
2023-04-21T23:12:55.908Z,20.23
2023-04-21T23:15:29.774Z,18.73
2023-04-21T23:18:00.966Z,19.02
2023-04-21T23:20:31.555Z,16.25
2023-04-21T23:23:08.492Z,17.98
2023-04-21T23:25:38.425Z,17.30
2023-04-21T23:28:08.950Z,20.00
2023-04-21T23:30:41.158Z,15.90
2023-04-21T23:33:13.340Z,16.15
2023-04-21T23:35:45.087Z,19.65
2023-04-21T23:38:14.630Z,21.08
2023-04-21T23:40:43.894Z,17.58
2023-04-21T23:43:16.985Z,15.50
2023-04-21T23:45:47.333Z,17.88
2023-04-21T23:48:36.060Z,20.95
2023-04-21T23:51:05.546Z,21.55
2023-04-21T23:53:36.350Z,21.88
2023-04-21T23:56:05.047Z,20.67
2023-04-21T23:58:34.580Z,18.95
